createdAt,value
2023-03-07T00:00:50.602Z,38.78
2023-03-07T00:03:53.756Z,37.67
2023-03-07T00:06:57.299Z,39.15
2023-03-07T00:10:00.309Z,37.20
2023-03-07T00:13:04.302Z,36.42
2023-03-07T00:16:12.414Z,42.60
2023-03-07T00:19:15.142Z,36.03
2023-03-07T00:22:18.177Z,40.15
2023-03-07T00:25:20.931Z,38.10
2023-03-07T00:28:23.981Z,40.88
2023-03-07T00:31:26.687Z,43.67
2023-03-07T00:34:29.742Z,40.35
2023-03-07T00:37:32.456Z,35.20
2023-03-07T00:40:35.710Z,39.20
2023-03-07T00:43:39.750Z,39.17
2023-03-07T00:46:43.135Z,36.83
2023-03-07T00:49:46.128Z,38.83
2023-03-07T00:52:49.396Z,41.08
2023-03-07T00:56:03.843Z,36.77
2023-03-07T00:59:07.881Z,37.03
2023-03-07T01:02:10.938Z,36.10
2023-03-07T01:05:14.095Z,36.92
2023-03-07T01:08:18.710Z,40.53
2023-03-07T01:11:21.890Z,34.33
2023-03-07T01:14:24.702Z,38.28
2023-03-07T01:17:27.990Z,42.83
2023-03-07T01:20:33.434Z,39.88
2023-03-07T01:23:36.409Z,41.55
2023-03-07T01:26:39.359Z,42.77
2023-03-07T01:29:42.488Z,40.15
2023-03-07T01:32:45.614Z,39.72
2023-03-07T01:35:48.768Z,43.25
2023-03-07T01:38:55.774Z,40.22
2023-03-07T01:41:58.809Z,39.07
2023-03-07T01:45:14.387Z,34.47
2023-03-07T01:48:18.216Z,40.47
2023-03-07T01:51:22.361Z,35.92
2023-03-07T01:54:26.647Z,36.25
2023-03-07T01:57:37.358Z,36.67
2023-03-07T02:00:42.116Z,38.28
2023-03-07T02:03:54.327Z,44.50
2023-03-07T02:06:57.220Z,33.58
2023-03-07T02:10:01.714Z,36.13
2023-03-07T02:13:05.645Z,38.28
2023-03-07T02:16:09.127Z,40.97
2023-03-07T02:19:21.216Z,35.13
2023-03-07T02:22:25.419Z,41.08
2023-03-07T02:25:34.165Z,33.50
2023-03-07T02:28:37.556Z,37.63
2023-03-07T02:31:41.660Z,37.38
2023-03-07T02:34:44.597Z,34.05
2023-03-07T02:37:52.754Z,32.50
2023-03-07T02:40:57.441Z,36.13
2023-03-07T02:44:00.765Z,35.70
2023-03-07T02:47:05.716Z,39.35
2023-03-07T02:50:10.501Z,64.20
2023-03-07T02:53:13.570Z,39.60
2023-03-07T02:56:16.865Z,39.00
2023-03-07T02:59:19.505Z,36.35
2023-03-07T03:02:23.007Z,44.40
2023-03-07T03:05:26.012Z,41.70
2023-03-07T03:08:29.114Z,43.30
2023-03-07T03:11:32.046Z,40.38
2023-03-07T03:14:35.280Z,43.87
2023-03-07T03:17:38.384Z,39.67
2023-03-07T03:20:45.020Z,44.42
2023-03-07T03:23:48.260Z,41.83
2023-03-07T03:26:51.410Z,42.70
2023-03-07T03:29:56.848Z,37.90
2023-03-07T03:33:00.107Z,37.22
2023-03-07T03:36:11.437Z,35.70
2023-03-07T03:39:15.360Z,34.43
2023-03-07T03:42:19.263Z,38.40
2023-03-07T03:45:23.342Z,39.10
2023-03-07T03:48:27.257Z,39.80
2023-03-07T03:51:31.038Z,44.93
2023-03-07T03:54:34.246Z,41.95
2023-03-07T03:57:37.544Z,38.20
2023-03-07T04:00:41.941Z,37.35
2023-03-07T04:03:47.610Z,36.42
2023-03-07T04:06:51.261Z,42.30
2023-03-07T04:09:54.479Z,35.03
2023-03-07T04:12:57.423Z,39.55
2023-03-07T04:16:02.181Z,34.97
2023-03-07T04:19:05.399Z,36.53
2023-03-07T04:22:10.471Z,34.27
2023-03-07T04:25:14.452Z,85.53
2023-03-07T04:28:18.642Z,46.72
2023-03-07T04:31:26.717Z,31.67
2023-03-07T04:34:30.049Z,35.17
2023-03-07T04:37:32.820Z,34.80
2023-03-07T04:40:36.481Z,61.85
2023-03-07T04:43:39.271Z,50.45
2023-03-07T04:46:42.642Z,61.77
2023-03-07T04:49:45.620Z,83.18
2023-03-07T04:52:50.635Z,47.20
2023-03-07T04:56:01.708Z,52.08
2023-03-07T04:59:08.678Z,53.08
2023-03-07T05:02:13.833Z,116.43
2023-03-07T05:05:17.793Z,112.28
2023-03-07T05:08:22.469Z,160.05
2023-03-07T05:11:25.996Z,46.70
2023-03-07T05:14:29.392Z,63.33
2023-03-07T05:17:32.694Z,87.45
2023-03-07T05:20:35.703Z,77.28
2023-03-07T05:23:39.044Z,67.22
2023-03-07T05:26:42.696Z,65.85
2023-03-07T05:29:45.935Z,40.63
2023-03-07T05:32:48.712Z,48.92
2023-03-07T05:35:51.977Z,68.87
2023-03-07T05:38:56.608Z,73.78
2023-03-07T05:42:00.426Z,56.80
2023-03-07T05:45:06.088Z,57.47
2023-03-07T05:48:09.557Z,43.63
2023-03-07T05:51:12.786Z,44.15
2023-03-07T05:54:16.556Z,61.33
2023-03-07T05:57:20.451Z,87.50
2023-03-07T06:00:23.832Z,110.90
2023-03-07T06:03:28.388Z,112.35
2023-03-07T06:06:31.270Z,50.42
2023-03-07T06:09:34.636Z,47.77
2023-03-07T06:12:37.552Z,54.13
2023-03-07T06:15:40.647Z,69.35
2023-03-07T06:18:43.946Z,108.00
2023-03-07T06:21:47.047Z,76.40
2023-03-07T06:24:49.966Z,74.73
2023-03-07T06:27:53.263Z,79.00
2023-03-07T06:30:58.128Z,78.00
2023-03-07T06:34:01.191Z,83.00
2023-03-07T06:37:04.403Z,82.07
2023-03-07T06:40:09.690Z,61.27
2023-03-07T06:43:15.438Z,59.75
2023-03-07T06:46:21.134Z,53.35
2023-03-07T06:49:24.447Z,50.30
2023-03-07T06:52:27.740Z,58.55
2023-03-07T06:55:30.953Z,50.00
2023-03-07T06:58:34.320Z,50.90
2023-03-07T07:01:37.871Z,52.92
2023-03-07T07:04:41.123Z,57.70
2023-03-07T07:07:44.170Z,53.97
2023-03-07T07:10:48.148Z,48.53
2023-03-07T07:13:51.541Z,48.60
2023-03-07T07:16:54.938Z,52.45
2023-03-07T07:19:58.484Z,51.47
2023-03-07T07:23:02.728Z,45.53
2023-03-07T07:26:06.333Z,51.50
2023-03-07T07:29:12.030Z,44.60
2023-03-07T07:32:15.299Z,43.08
2023-03-07T07:35:19.229Z,40.90
2023-03-07T07:38:23.530Z,39.20
2023-03-07T07:41:26.628Z,42.47
2023-03-07T07:44:31.228Z,36.53
2023-03-07T07:47:34.937Z,40.80
2023-03-07T07:50:37.996Z,35.25
2023-03-07T07:53:41.545Z,42.38
2023-03-07T07:56:44.613Z,40.70
2023-03-07T07:59:47.984Z,42.70
2023-03-07T08:02:51.815Z,43.05
2023-03-07T08:05:55.280Z,40.75
2023-03-07T08:09:00.288Z,33.03
2023-03-07T08:12:03.569Z,42.13
2023-03-07T08:15:06.900Z,54.88
2023-03-07T08:18:12.822Z,46.60
2023-03-07T08:21:15.752Z,49.30
2023-03-07T08:24:19.844Z,36.90
2023-03-07T08:27:23.604Z,46.40
2023-03-07T08:30:28.800Z,38.75
2023-03-07T08:33:33.368Z,31.30
2023-03-07T08:36:36.511Z,34.65
2023-03-07T08:39:39.251Z,44.97
2023-03-07T08:42:43.371Z,34.00
2023-03-07T08:45:46.151Z,27.65
2023-03-07T08:48:49.311Z,14.43
2023-03-07T08:51:52.092Z,24.67
2023-03-07T08:54:55.161Z,30.73
2023-03-07T08:57:57.874Z,29.40
2023-03-07T09:01:01.235Z,22.55
2023-03-07T09:04:05.362Z,26.87
2023-03-07T09:07:08.497Z,26.73
2023-03-07T09:10:12.133Z,26.90
2023-03-07T09:13:17.477Z,26.58
2023-03-07T09:16:22.041Z,21.50
2023-03-07T09:19:26.212Z,26.15
2023-03-07T09:22:28.943Z,23.98
2023-03-07T09:25:32.166Z,24.87
2023-03-07T09:28:35.051Z,19.27
2023-03-07T09:31:38.685Z,21.25
2023-03-07T09:34:41.477Z,25.12
2023-03-07T09:37:49.960Z,19.25
2023-03-07T09:40:53.019Z,16.43
2023-03-07T09:44:24.518Z,19.45
2023-03-07T09:47:50.467Z,16.90
2023-03-07T09:50:58.498Z,25.40
2023-03-07T09:54:31.657Z,19.02
2023-03-07T09:57:41.625Z,21.13
2023-03-07T10:00:46.351Z,13.50
2023-03-07T10:03:58.193Z,8.98
2023-03-07T10:07:03.069Z,13.13
2023-03-07T10:10:30.834Z,12.07
2023-03-07T10:13:58.600Z,6.90
2023-03-07T10:17:35.423Z,10.65
2023-03-07T10:20:47.141Z,12.27
2023-03-07T10:24:16.714Z,9.60
2023-03-07T10:27:23.214Z,7.55
2023-03-07T10:30:26.797Z,9.40
2023-03-07T10:33:31.177Z,11.75
2023-03-07T10:36:36.955Z,8.70
2023-03-07T10:39:52.794Z,9.57
2023-03-07T10:42:57.585Z,13.75
2023-03-07T10:46:23.654Z,10.97
2023-03-07T10:49:32.473Z,13.38
2023-03-07T10:52:39.820Z,10.07
2023-03-07T10:55:46.846Z,14.27
2023-03-07T10:58:59.989Z,8.73
2023-03-07T11:02:10.795Z,14.00
2023-03-07T11:05:34.655Z,9.70
2023-03-07T11:08:37.701Z,12.18
2023-03-07T11:11:40.622Z,9.90
2023-03-07T11:14:51.862Z,12.35
2023-03-07T11:17:54.686Z,19.13
2023-03-07T11:20:59.400Z,14.10
2023-03-07T11:24:05.051Z,8.07
2023-03-07T11:27:22.634Z,17.67
2023-03-07T11:30:30.662Z,12.80
2023-03-07T11:34:00.214Z,14.40
2023-03-07T11:37:32.150Z,15.52
2023-03-07T11:41:04.581Z,17.20
2023-03-07T11:44:26.082Z,11.65
2023-03-07T11:47:59.043Z,12.45
2023-03-07T11:51:04.751Z,15.23
2023-03-07T11:54:19.951Z,17.60
2023-03-07T11:57:22.722Z,13.60
2023-03-07T12:01:07.676Z,12.93
2023-03-07T12:04:23.219Z,15.35
2023-03-07T12:07:49.366Z,14.80
2023-03-07T12:11:07.173Z,13.73
2023-03-07T12:14:22.616Z,15.13
2023-03-07T12:17:51.597Z,15.52
2023-03-07T12:21:13.290Z,17.48
2023-03-07T12:24:51.781Z,17.20
2023-03-07T12:28:21.024Z,15.57
2023-03-07T12:31:40.741Z,17.67
2023-03-07T12:35:13.260Z,11.10
2023-03-07T12:38:53.225Z,19.73
2023-03-07T12:42:01.915Z,16.70
2023-03-07T12:45:07.833Z,10.27
2023-03-07T12:48:24.739Z,15.32
2023-03-07T12:51:27.829Z,13.70
2023-03-07T12:54:46.276Z,14.40
2023-03-07T12:57:59.477Z,12.97
2023-03-07T13:01:07.540Z,21.65
2023-03-07T13:04:26.343Z,15.95
2023-03-07T13:07:33.332Z,16.15
2023-03-07T13:10:37.074Z,20.33
2023-03-07T13:13:43.555Z,14.37
2023-03-07T13:16:47.874Z,14.07
2023-03-07T13:19:56.474Z,17.05
2023-03-07T13:23:11.267Z,13.98
2023-03-07T13:26:23.018Z,19.75
2023-03-07T13:30:03.951Z,15.97
2023-03-07T13:33:30.055Z,13.80
2023-03-07T13:36:39.112Z,17.10
2023-03-07T13:40:02.632Z,15.50
2023-03-07T13:43:26.147Z,16.83
2023-03-07T13:46:52.631Z,12.97
2023-03-07T13:49:56.332Z,11.80
2023-03-07T13:53:00.377Z,13.73
2023-03-07T13:56:15.402Z,10.50
2023-03-07T13:59:27.836Z,14.48
2023-03-07T14:02:31.120Z,15.03
2023-03-07T14:05:35.052Z,10.95
2023-03-07T14:08:38.142Z,14.70
2023-03-07T14:12:09.743Z,11.23
2023-03-07T14:15:28.750Z,20.65
2023-03-07T14:18:50.233Z,16.97
2023-03-07T14:22:04.301Z,16.65
2023-03-07T14:25:20.323Z,20.73
2023-03-07T14:28:23.057Z,20.52
2023-03-07T14:31:36.819Z,15.60
2023-03-07T14:34:49.316Z,12.90
2023-03-07T14:37:52.412Z,11.85
2023-03-07T14:41:22.985Z,15.57
2023-03-07T14:44:35.164Z,17.23
2023-03-07T14:47:56.499Z,22.55
2023-03-07T14:51:08.927Z,13.57
2023-03-07T14:54:18.067Z,13.93
2023-03-07T14:57:34.974Z,25.90
2023-03-07T15:00:38.078Z,20.23
2023-03-07T15:03:53.140Z,15.15
2023-03-07T15:07:04.911Z,17.73
2023-03-07T15:10:15.956Z,15.48
2023-03-07T15:13:28.830Z,19.45
2023-03-07T15:16:42.660Z,38.22
2023-03-07T15:20:08.278Z,14.70
2023-03-07T15:23:24.284Z,16.57
2023-03-07T15:26:28.493Z,20.42
2023-03-07T15:29:33.387Z,19.33
2023-03-07T15:32:37.629Z,19.67
2023-03-07T15:35:41.084Z,23.23
2023-03-07T15:38:45.931Z,19.27
2023-03-07T15:42:01.079Z,15.10
2023-03-07T15:45:05.084Z,18.08
2023-03-07T15:48:30.094Z,18.70
2023-03-07T15:51:38.462Z,20.62
2023-03-07T15:54:43.451Z,26.03
2023-03-07T15:57:56.247Z,24.77
2023-03-07T16:01:16.161Z,17.25
2023-03-07T16:04:45.646Z,15.57
2023-03-07T16:07:50.788Z,25.37
2023-03-07T16:11:03.251Z,19.10
2023-03-07T16:14:14.712Z,22.77
2023-03-07T16:17:23.993Z,23.10
2023-03-07T16:20:28.903Z,19.75
2023-03-07T16:23:34.255Z,22.55
2023-03-07T16:26:37.751Z,18.63
2023-03-07T16:29:41.383Z,21.80
2023-03-07T16:32:45.070Z,19.77
2023-03-07T16:35:48.722Z,15.60
2023-03-07T16:38:52.133Z,11.70
2023-03-07T16:41:55.874Z,16.40
2023-03-07T16:44:58.516Z,12.60
2023-03-07T16:48:05.124Z,18.40
2023-03-07T16:51:21.620Z,11.10
2023-03-07T16:54:25.287Z,13.13
2023-03-07T16:57:28.305Z,11.33
2023-03-07T17:00:32.529Z,15.65
2023-03-07T17:03:35.540Z,20.75
2023-03-07T17:06:39.856Z,13.30
2023-03-07T17:09:43.309Z,17.87
2023-03-07T17:12:47.456Z,12.27
2023-03-07T17:15:50.540Z,22.30
2023-03-07T17:19:00.118Z,8.40
2023-03-07T17:22:04.077Z,15.82
2023-03-07T17:25:08.173Z,17.98
2023-03-07T17:28:15.815Z,11.67
2023-03-07T17:31:19.351Z,19.50
2023-03-07T17:34:44.912Z,14.87
2023-03-07T17:37:50.914Z,19.27
2023-03-07T17:40:56.149Z,10.23
2023-03-07T17:44:00.099Z,17.60
2023-03-07T17:47:06.242Z,11.43
2023-03-07T17:50:11.437Z,16.75
2023-03-07T17:53:14.895Z,13.23
2023-03-07T17:56:19.154Z,19.30
2023-03-07T17:59:22.760Z,18.03
2023-03-07T18:02:27.583Z,18.62
2023-03-07T18:05:33.095Z,19.30
2023-03-07T18:08:38.803Z,11.85
2023-03-07T18:11:43.220Z,22.50
2023-03-07T18:14:52.429Z,14.20
2023-03-07T18:18:04.543Z,13.60
2023-03-07T18:21:13.243Z,18.25
2023-03-07T18:24:23.060Z,15.98
2023-03-07T18:27:27.428Z,19.62
2023-03-07T18:30:36.527Z,19.53
2023-03-07T18:33:41.562Z,22.80
2023-03-07T18:36:46.308Z,21.65
2023-03-07T18:39:50.341Z,20.45
2023-03-07T18:42:55.851Z,18.55
2023-03-07T18:46:00.187Z,37.37
2023-03-07T18:49:06.040Z,12.65
2023-03-07T18:52:10.119Z,17.92
2023-03-07T18:55:14.769Z,20.75
2023-03-07T18:58:19.047Z,22.40
2023-03-07T19:01:35.945Z,20.43
2023-03-07T19:04:39.849Z,10.20
2023-03-07T19:07:44.311Z,16.62
2023-03-07T19:10:48.873Z,17.10
2023-03-07T19:13:53.192Z,17.08
2023-03-07T19:17:00.288Z,20.17
2023-03-07T19:20:06.095Z,14.73
2023-03-07T19:23:10.592Z,25.98
2023-03-07T19:26:18.964Z,13.55
2023-03-07T19:29:23.051Z,24.37
2023-03-07T19:32:31.279Z,23.33
2023-03-07T19:35:34.902Z,29.20
2023-03-07T19:38:41.297Z,23.52
2023-03-07T19:41:51.583Z,27.30
2023-03-07T19:44:56.074Z,26.67
2023-03-07T19:48:00.094Z,23.13
2023-03-07T19:51:06.067Z,23.02
2023-03-07T19:54:14.356Z,22.92
2023-03-07T19:57:20.452Z,25.55
2023-03-07T20:00:24.231Z,24.00
2023-03-07T20:03:28.491Z,16.00
2023-03-07T20:06:33.473Z,20.35
2023-03-07T20:09:38.581Z,15.65
2023-03-07T20:12:42.757Z,13.60
2023-03-07T20:15:54.208Z,17.23
2023-03-07T20:19:00.120Z,15.93
2023-03-07T20:22:05.680Z,24.52
2023-03-07T20:25:10.498Z,20.67
2023-03-07T20:28:14.429Z,12.40
2023-03-07T20:31:20.883Z,16.48
2023-03-07T20:34:31.875Z,16.13
2023-03-07T20:37:46.090Z,21.65
2023-03-07T20:40:50.677Z,11.65
2023-03-07T20:43:58.032Z,13.48
2023-03-07T20:47:03.173Z,20.67
2023-03-07T20:50:07.611Z,16.40
2023-03-07T20:53:13.310Z,22.42
2023-03-07T20:56:17.783Z,19.70
2023-03-07T20:59:22.182Z,26.27
2023-03-07T21:02:26.547Z,16.20
2023-03-07T21:05:32.384Z,19.93
2023-03-07T21:08:38.215Z,21.87
2023-03-07T21:11:47.708Z,20.23
2023-03-07T21:14:51.862Z,27.45
2023-03-07T21:17:56.125Z,19.98
2023-03-07T21:21:01.824Z,14.47
2023-03-07T21:24:07.408Z,22.17
2023-03-07T21:27:11.589Z,22.83
2023-03-07T21:30:15.916Z,19.98
2023-03-07T21:33:19.228Z,17.75
2023-03-07T21:36:27.639Z,25.07
2023-03-07T21:39:31.304Z,25.37
2023-03-07T21:42:35.119Z,23.92
2023-03-07T21:45:38.306Z,20.45
2023-03-07T21:48:42.840Z,45.58
2023-03-07T21:51:46.675Z,37.03
2023-03-07T21:54:50.537Z,36.97
2023-03-07T21:57:53.530Z,23.42
2023-03-07T22:00:57.152Z,21.45
2023-03-07T22:04:00.604Z,23.00
2023-03-07T22:07:03.314Z,21.00
2023-03-07T22:10:10.372Z,22.77
2023-03-07T22:13:13.121Z,26.15
2023-03-07T22:16:20.658Z,17.83
2023-03-07T22:19:23.590Z,23.12
2023-03-07T22:22:27.023Z,16.17
2023-03-07T22:25:29.740Z,25.02
2023-03-07T22:28:33.140Z,23.12
2023-03-07T22:31:35.877Z,22.33
2023-03-07T22:34:38.980Z,24.17
2023-03-07T22:37:42.064Z,25.97
2023-03-07T22:40:45.156Z,22.80
2023-03-07T22:43:48.008Z,28.45
2023-03-07T22:46:51.232Z,24.75
2023-03-07T22:49:53.986Z,23.52
2023-03-07T22:52:57.034Z,29.53
2023-03-07T22:56:00.520Z,31.85
2023-03-07T22:59:05.649Z,23.83
2023-03-07T23:02:08.369Z,22.58
2023-03-07T23:05:11.611Z,25.05
2023-03-07T23:08:14.550Z,23.17
2023-03-07T23:11:18.969Z,22.92
2023-03-07T23:14:21.946Z,22.30
2023-03-07T23:17:25.000Z,25.73
2023-03-07T23:20:29.214Z,23.85
2023-03-07T23:23:32.368Z,23.33
2023-03-07T23:26:37.695Z,26.40
2023-03-07T23:29:40.789Z,24.60
2023-03-07T23:32:43.662Z,23.33
2023-03-07T23:35:46.855Z,25.65
2023-03-07T23:38:49.755Z,26.93
2023-03-07T23:41:52.845Z,26.33
2023-03-07T23:44:55.808Z,27.80
2023-03-07T23:47:58.877Z,26.98
2023-03-07T23:51:01.649Z,28.92
2023-03-07T23:54:04.689Z,24.40
2023-03-07T23:57:07.338Z,28.40
